Time;durP1;ratioP1;P1;durP2;ratioP2;P2;SDS_P1;SDS_P2;PMS_P1;PMS_P2;Temp;Humidity;BMP_temperature;BMP_pressure;BME280_temperature;BME280_humidity;BME280_pressure;Samples;Min_cycle;Max_cycle;Signal;HPM_P1;HPM_P2
2022/07/27 00:00:14;;;;;;;1999.90;999.90;;;17.20;99.90;;;;;;5036315;28;20038;-72
2022/07/27 00:02:40;;;;;;;1999.90;999.90;;;17.20;99.90;;;;;;5036268;28;20484;-74
2022/07/27 00:05:06;;;;;;;1999.90;999.90;;;17.20;99.90;;;;;;5036209;28;20032;-74
2022/07/27 00:07:32;;;;;;;1999.90;999.90;;;17.30;99.90;;;;;;5036425;28;20032;-72
2022/07/27 00:09:57;;;;;;;1999.90;999.90;;;17.30;99.90;;;;;;5036228;28;20033;-72
2022/07/27 00:12:23;;;;;;;1999.90;999.90;;;17.30;99.90;;;;;;5035682;28;20500;-72
2022/07/27 00:14:48;;;;;;;1999.90;999.90;;;17.30;99.90;;;;;;5034787;28;20032;-74
2022/07/27 00:17:14;;;;;;;1999.90;999.90;;;17.20;99.90;;;;;;5035700;28;20029;-73
2022/07/27 00:19:40;;;;;;;1999.90;999.90;;;17.30;99.90;;;;;;5035919;28;20025;-75
2022/07/27 00:22:06;;;;;;;1999.90;999.90;;;17.20;99.90;;;;;;5034688;28;20025;-72
2022/07/27 00:24:31;;;;;;;1999.90;999.90;;;17.20;99.90;;;;;;5036111;28;20084;-72
2022/07/27 00:26:57;;;;;;;1999.90;999.90;;;17.20;99.90;;;;;;5035328;28;20423;-74
2022/07/27 00:29:22;;;;;;;1999.90;999.90;;;17.20;99.90;;;;;;5035228;28;20039;-75
2022/07/27 00:31:48;;;;;;;1999.90;999.90;;;17.10;99.90;;;;;;5035719;28;20065;-75
2022/07/27 00:34:14;;;;;;;1999.90;999.90;;;17.10;99.90;;;;;;5035533;28;20072;-72
2022/07/27 00:36:39;;;;;;;1999.90;999.90;;;17.10;99.90;;;;;;5036023;28;20026;-72
2022/07/27 00:39:05;;;;;;;1999.90;999.90;;;17.10;99.90;;;;;;5035455;28;20017;-75
2022/07/27 00:41:30;;;;;;;1999.90;999.90;;;17.10;99.90;;;;;;5035436;28;20485;-74
2022/07/27 00:43:59;;;;;;;1999.90;999.90;;;17.00;99.90;;;;;;5035405;28;20033;-75
2022/07/27 00:46:26;;;;;;;1999.90;999.90;;;16.90;99.90;;;;;;5035419;28;20484;-75
2022/07/27 00:48:52;;;;;;;1999.90;999.90;;;16.90;99.90;;;;;;5034354;28;20029;-73
2022/07/27 00:51:20;;;;;;;1999.90;999.90;;;16.90;99.90;;;;;;5050606;28;20037;-72
2022/07/27 00:53:47;;;;;;;1999.90;999.90;;;16.90;99.90;;;;;;5035668;28;20033;-75
2022/07/27 00:56:13;;;;;;;1999.90;999.90;;;16.90;99.90;;;;;;5035251;28;20022;-73
2022/07/27 00:58:39;;;;;;;1999.90;999.90;;;16.80;99.90;;;;;;5050630;28;20120;-74
2022/07/27 01:01:06;;;;;;;1999.90;999.90;;;16.80;99.90;;;;;;5035223;28;20013;-74
2022/07/27 01:03:31;;;;;;;1999.90;999.90;;;16.80;99.90;;;;;;5050282;28;20108;-72
2022/07/27 01:05:57;;;;;;;1999.90;999.90;;;16.70;99.90;;;;;;5034724;28;20052;-74
2022/07/27 01:08:24;;;;;;;1999.90;999.90;;;16.70;99.90;;;;;;5034852;28;20515;-74
2022/07/27 01:10:51;;;;;;;1999.90;999.90;;;16.70;99.90;;;;;;5033521;28;20018;-75
2022/07/27 01:13:16;;;;;;;1999.90;999.90;;;16.60;99.90;;;;;;5034398;28;20053;-75
2022/07/27 01:15:43;;;;;;;1999.90;999.90;;;16.60;99.90;;;;;;5033495;28;20052;-72
2022/07/27 01:18:31;;;;;;;1999.90;999.90;;;16.50;99.90;;;;;;5035048;28;20431;-74
2022/07/27 01:20:59;;;;;;;1999.90;999.90;;;16.40;99.90;;;;;;5015138;28;20088;-72
2022/07/27 01:23:26;;;;;;;1999.90;999.90;;;16.40;99.90;;;;;;5014977;28;20021;-74
2022/07/27 01:25:52;;;;;;;1999.90;999.90;;;16.30;99.90;;;;;;5014827;28;20040;-74
2022/07/27 01:28:17;;;;;;;1999.90;999.90;;;16.30;99.90;;;;;;5014249;28;20048;-74
2022/07/27 01:30:43;;;;;;;1999.90;999.90;;;16.20;99.90;;;;;;5014962;28;20034;-72
2022/07/27 01:33:09;;;;;;;1999.90;999.90;;;16.20;99.90;;;;;;5014797;28;20434;-74
2022/07/27 01:35:39;;;;;;;1999.90;999.90;;;16.10;99.90;;;;;;5014594;28;20045;-74
2022/07/27 01:38:06;;;;;;;1999.90;999.90;;;16.10;99.90;;;;;;5036494;28;20515;-74
2022/07/27 01:40:32;;;;;;;1999.90;999.90;;;16.00;99.90;;;;;;5034326;28;20064;-73
2022/07/27 01:42:58;;;;;;;1999.90;999.90;;;16.00;99.90;;;;;;5034366;28;20493;-73
2022/07/27 01:45:24;;;;;;;1999.90;999.90;;;16.00;99.90;;;;;;5033083;28;20030;-74
2022/07/27 01:47:50;;;;;;;1999.90;999.90;;;16.00;99.90;;;;;;5033005;28;20025;-73
2022/07/27 01:50:15;;;;;;;1999.90;999.90;;;15.90;99.90;;;;;;5034639;28;20365;-72
2022/07/27 01:52:41;;;;;;;1999.90;999.90;;;15.90;99.90;;;;;;5034226;28;20033;-74
2022/07/27 01:55:09;;;;;;;1999.90;999.90;;;15.90;99.90;;;;;;5034314;28;20022;-72
2022/07/27 01:57:36;;;;;;;1999.90;999.90;;;15.90;99.90;;;;;;5032744;28;20439;-74
2022/07/27 02:00:07;;;;;;;1999.90;999.90;;;15.90;99.90;;;;;;5034491;28;20045;-72
2022/07/27 02:02:32;;;;;;;1999.90;999.90;;;15.80;99.90;;;;;;5033940;28;20025;-74
2022/07/27 02:04:58;;;;;;;1999.90;999.90;;;15.80;99.90;;;;;;5034082;28;20031;-72
2022/07/27 02:07:24;;;;;;;1999.90;999.90;;;15.70;99.90;;;;;;5033992;28;20488;-73
2022/07/27 02:09:49;;;;;;;1999.90;999.90;;;15.70;99.90;;;;;;5034163;28;20500;-74
2022/07/27 02:14:59;;;;;;;1999.90;999.90;;;15.70;99.90;;;;;;5034009;28;20029;-73
2022/07/27 02:17:26;;;;;;;1999.90;999.90;;;15.60;99.90;;;;;;5033730;28;20029;-74
2022/07/27 02:19:51;;;;;;;1999.90;999.90;;;15.70;99.90;;;;;;5033888;28;20021;-72
2022/07/27 02:22:17;;;;;;;1999.90;999.90;;;15.60;99.90;;;;;;5033560;28;20503;-72
2022/07/27 02:24:42;;;;;;;1999.90;999.90;;;15.60;99.90;;;;;;5034082;28;20029;-74
2022/07/27 02:27:08;;;;;;;1999.90;999.90;;;15.50;99.90;;;;;;5033147;28;20053;-72
2022/07/27 02:29:34;;;;;;;1999.90;999.90;;;15.50;99.90;;;;;;5033166;28;20377;-72
2022/07/27 02:31:59;;;;;;;1999.90;999.90;;;15.40;99.90;;;;;;5033604;28;20030;-72
2022/07/27 02:34:26;;;;;;;1999.90;999.90;;;15.40;99.90;;;;;;5033065;28;20499;-72
2022/07/27 02:36:51;;;;;;;1999.90;999.90;;;15.40;99.90;;;;;;5033539;28;20029;-74
2022/07/27 02:39:17;;;;;;;1999.90;999.90;;;15.40;99.90;;;;;;5033467;28;20473;-74
2022/07/27 02:41:45;;;;;;;1999.90;999.90;;;15.40;99.90;;;;;;5033389;28;20473;-74
2022/07/27 02:44:13;;;;;;;1999.90;999.90;;;15.40;99.90;;;;;;5021207;28;20044;-72
2022/07/27 02:46:39;;;;;;;1999.90;999.90;;;15.40;99.90;;;;;;5013466;28;20034;-72
2022/07/27 02:49:05;;;;;;;1999.90;999.90;;;15.40;99.90;;;;;;5013847;28;20022;-74
2022/07/27 02:51:32;;;;;;;1999.90;999.90;;;15.30;99.90;;;;;;5013364;28;20021;-72
2022/07/27 02:53:58;;;;;;;1999.90;999.90;;;15.30;99.90;;;;;;5028728;28;20048;-73
2022/07/27 02:56:24;;;;;;;1999.90;999.90;;;15.30;99.90;;;;;;5013387;28;20520;-74
2022/07/27 02:58:49;;;;;;;1999.90;999.90;;;15.30;99.90;;;;;;5028671;28;20513;-72
2022/07/27 03:01:15;;;;;;;1999.90;999.90;;;15.30;99.90;;;;;;5013094;28;20097;-72
2022/07/27 03:03:41;;;;;;;1999.90;999.90;;;15.40;99.90;;;;;;5031426;28;20060;-74
2022/07/27 03:06:07;;;;;;;1999.90;999.90;;;15.30;99.90;;;;;;5033375;28;20025;-72
2022/07/27 03:08:33;;;;;;;1999.90;999.90;;;15.30;99.90;;;;;;5033198;28;20431;-74
2022/07/27 03:10:59;;;;;;;1999.90;999.90;;;15.30;99.90;;;;;;5032673;28;20044;-72
2022/07/27 03:13:25;;;;;;;1999.90;999.90;;;15.20;99.90;;;;;;5032808;28;20025;-72
2022/07/27 03:15:51;;;;;;;1999.90;999.90;;;15.20;99.90;;;;;;5032953;28;20024;-74
2022/07/27 03:18:16;;;;;;;1999.90;999.90;;;15.10;99.90;;;;;;5032626;28;20029;-74
2022/07/27 03:20:42;;;;;;;1999.90;999.90;;;15.10;99.90;;;;;;5032928;28;20036;-72
2022/07/27 03:23:08;;;;;;;1999.90;999.90;;;15.00;99.90;;;;;;5033878;28;20388;-72
2022/07/27 03:25:33;;;;;;;1999.90;999.90;;;15.00;99.90;;;;;;5036813;28;20041;-74
2022/07/27 03:27:59;;;;;;;1999.90;999.90;;;15.00;99.90;;;;;;5036691;28;20120;-72
2022/07/27 03:30:25;;;;;;;1999.90;999.90;;;14.90;99.90;;;;;;5036405;28;20040;-72
2022/07/27 03:32:50;;;;;;;1999.90;999.90;;;14.80;99.90;;;;;;5035430;28;20065;-72
2022/07/27 03:35:16;;;;;;;1999.90;999.90;;;14.80;99.90;;;;;;5036525;28;20105;-74
2022/07/27 03:37:42;;;;;;;1999.90;999.90;;;14.70;99.90;;;;;;5035492;28;20018;-74
2022/07/27 03:40:09;;;;;;;1999.90;999.90;;;14.70;99.90;;;;;;5036720;28;20026;-74
2022/07/27 03:42:34;;;;;;;1999.90;999.90;;;14.60;99.90;;;;;;5036756;28;20034;-72
2022/07/27 03:45:00;;;;;;;1999.90;999.90;;;14.60;99.90;;;;;;5017367;28;20030;-74
2022/07/27 03:47:25;;;;;;;1999.90;999.90;;;14.50;99.90;;;;;;5016758;28;20377;-72
2022/07/27 03:49:51;;;;;;;1999.90;999.90;;;14.50;99.90;;;;;;5016791;28;20025;-72
2022/07/27 03:52:18;;;;;;;1999.90;999.90;;;14.50;99.90;;;;;;5016798;28;20026;-72
2022/07/27 03:54:45;;;;;;;1999.90;999.90;;;14.50;99.90;;;;;;5017264;28;20030;-72
2022/07/27 03:57:11;;;;;;;1999.90;999.90;;;14.50;99.90;;;;;;5016544;28;20093;-74
2022/07/27 03:59:36;;;;;;;1999.90;999.90;;;14.50;99.90;;;;;;5016651;28;20057;-74
2022/07/27 04:02:03;;;;;;;1999.90;999.90;;;14.50;99.90;;;;;;5021160;28;20497;-72
2022/07/27 04:04:29;;;;;;;1999.90;999.90;;;14.50;99.90;;;;;;5036195;28;20029;-72
2022/07/27 04:06:55;;;;;;;1999.90;999.90;;;14.50;99.90;;;;;;5036531;28;20032;-73
2022/07/27 04:09:21;;;;;;;1999.90;999.90;;;14.50;99.90;;;;;;5036213;28;20025;-72
2022/07/27 04:11:46;;;;;;;1999.90;999.90;;;14.50;99.90;;;;;;5035617;28;20025;-72
2022/07/27 04:14:12;;;;;;;1999.90;999.90;;;14.50;99.90;;;;;;5035837;28;20029;-74
2022/07/27 04:16:38;;;;;;;1999.90;999.90;;;14.50;99.90;;;;;;5034701;28;20112;-72
2022/07/27 04:19:05;;;;;;;1999.90;999.90;;;14.50;99.90;;;;;;5035788;28;20025;-74
2022/07/27 04:21:31;;;;;;;1999.90;999.90;;;14.50;99.90;;;;;;5036123;28;20033;-74
2022/07/27 04:23:57;;;;;;;1999.90;999.90;;;14.40;99.90;;;;;;5035885;28;20037;-72
2022/07/27 04:26:22;;;;;;;1999.90;999.90;;;14.40;99.90;;;;;;5033892;28;20489;-72
2022/07/27 04:28:48;;;;;;;1999.90;999.90;;;14.40;99.90;;;;;;5035335;28;20412;-74
2022/07/27 04:31:15;;;;;;;1999.90;999.90;;;14.40;99.90;;;;;;5035173;28;20033;-72
2022/07/27 04:33:41;;;;;;;1999.90;999.90;;;14.40;99.90;;;;;;5034910;28;20096;-74
2022/07/27 04:36:07;;;;;;;1999.90;999.90;;;14.40;99.90;;;;;;5035682;28;20030;-74
2022/07/27 04:38:34;;;;;;;1999.90;999.90;;;14.50;99.90;;;;;;5035275;28;20025;-74
2022/07/27 04:40:59;;;;;;;1999.90;999.90;;;14.50;99.90;;;;;;5035380;28;20028;-72
2022/07/27 04:43:25;;;;;;;1999.90;999.90;;;14.60;99.90;;;;;;5035399;28;20476;-72
2022/07/27 04:45:51;;;;;;;1999.90;999.90;;;14.60;99.90;;;;;;5035564;28;20484;-72
2022/07/27 04:48:16;;;;;;;1999.90;999.90;;;14.70;99.90;;;;;;5035191;28;20029;-74
2022/07/27 04:50:44;;;;;;;1999.90;999.90;;;14.70;99.90;;;;;;5035387;28;20030;-72
2022/07/27 04:53:11;;;;;;;1999.90;999.90;;;14.70;99.90;;;;;;5035396;28;20060;-74
2022/07/27 04:55:41;;;;;;;1999.90;999.90;;;14.80;99.90;;;;;;5035395;28;20435;-74
2022/07/27 04:58:07;;;;;;;1999.90;999.90;;;14.90;99.90;;;;;;5035358;28;20067;-72
2022/07/27 05:00:33;;;;;;;1999.90;999.90;;;14.90;99.90;;;;;;5035323;28;20029;-72
2022/07/27 05:02:59;;;;;;;1999.90;999.90;;;15.00;99.90;;;;;;5034981;28;20034;-74
2022/07/27 05:05:24;;;;;;;1999.90;999.90;;;15.00;99.90;;;;;;5033852;28;20021;-74
2022/07/27 05:07:50;;;;;;;1999.90;999.90;;;15.00;99.90;;;;;;5035110;28;20156;-72
2022/07/27 05:10:16;;;;;;;1999.90;999.90;;;15.00;99.90;;;;;;5034924;28;20025;-72
2022/07/27 05:12:43;;;;;;;1999.90;999.90;;;15.00;99.90;;;;;;5034890;28;20049;-74
2022/07/27 05:15:09;;;;;;;1999.90;999.90;;;15.00;99.90;;;;;;5034952;28;20014;-72
2022/07/27 05:17:35;;;;;;;1999.90;999.90;;;15.00;99.90;;;;;;5033122;28;20083;-74
2022/07/27 05:20:01;;;;;;;1999.90;999.90;;;15.10;99.90;;;;;;5033364;28;20021;-74
2022/07/27 05:22:26;;;;;;;1999.90;999.90;;;15.10;99.90;;;;;;5034354;28;20036;-72
2022/07/27 05:24:52;;;;;;;1999.90;999.90;;;15.10;99.90;;;;;;5034903;28;20025;-72
2022/07/27 05:27:18;;;;;;;1999.90;999.90;;;15.10;99.90;;;;;;5032460;28;20562;-72
2022/07/27 05:29:43;;;;;;;1999.90;999.90;;;15.10;99.90;;;;;;5034266;28;20029;-72
2022/07/27 05:32:09;;;;;;;1999.90;999.90;;;15.20;99.90;;;;;;5034466;28;20029;-74
2022/07/27 05:34:35;;;;;;;1999.90;999.90;;;15.20;99.90;;;;;;5029879;28;20029;-72
2022/07/27 05:37:01;;;;;;;1999.90;999.90;;;15.20;99.90;;;;;;5033563;28;20060;-74
2022/07/27 05:39:26;;;;;;;1999.90;999.90;;;15.20;99.90;;;;;;5034236;28;20029;-74
2022/07/27 05:41:52;;;;;;;1999.90;999.90;;;15.30;99.90;;;;;;5034440;28;20042;-74
2022/07/27 05:44:18;;;;;;;1999.90;999.90;;;15.40;99.90;;;;;;5033722;28;20029;-72
2022/07/27 05:46:43;;;;;;;1999.90;999.90;;;15.50;99.90;;;;;;5033064;28;20503;-72
2022/07/27 05:49:09;;;;;;;1999.90;999.90;;;15.50;99.90;;;;;;5034068;28;20117;-72
2022/07/27 05:51:35;;;;;;;1999.90;999.90;;;15.60;99.90;;;;;;5034027;28;20378;-74
2022/07/27 05:54:00;;;;;;;1999.90;999.90;;;15.60;99.90;;;;;;5034208;28;20032;-72
2022/07/27 05:56:26;;;;;;;1999.90;999.90;;;15.70;99.90;;;;;;5033568;28;20037;-74
2022/07/27 05:58:52;;;;;;;1999.90;999.90;;;15.70;99.90;;;;;;5033670;28;20048;-72
2022/07/27 06:01:18;;;;;;;1999.90;999.90;;;15.80;99.90;;;;;;5033145;28;20022;-73
2022/07/27 06:03:44;;;;;;;1999.90;999.90;;;15.80;99.90;;;;;;5032244;28;20022;-74
2022/07/27 06:08:54;;;;;;;1999.90;999.90;;;15.90;99.90;;;;;;5033128;28;20190;-74
2022/07/27 06:11:19;;;;;;;1999.90;999.90;;;16.00;99.90;;;;;;5013561;28;20473;-74
2022/07/27 06:13:45;;;;;;;1999.90;999.90;;;16.10;99.90;;;;;;5013747;28;20029;-72
2022/07/27 06:16:11;;;;;;;1999.90;999.90;;;16.30;99.90;;;;;;5013885;28;20485;-72
2022/07/27 06:18:37;;;;;;;1999.90;999.90;;;16.50;99.90;;;;;;5021309;28;20050;-75
2022/07/27 06:21:03;;;;;;;1999.90;999.90;;;16.70;99.90;;;;;;5025558;28;20049;-74
2022/07/27 06:23:29;;;;;;;1999.90;999.90;;;16.70;99.90;;;;;;5046833;28;20021;-74
2022/07/27 06:25:55;;;;;;;1999.90;999.90;;;16.80;99.90;;;;;;5032998;28;20025;-72
2022/07/27 06:28:21;;;;;;;1999.90;999.90;;;16.90;99.90;;;;;;5030017;28;20072;-72
2022/07/27 06:30:46;;;;;;;1999.90;999.90;;;17.00;99.90;;;;;;5012755;28;20058;-72
2022/07/27 06:33:14;;;;;;;1999.90;999.90;;;17.20;99.90;;;;;;5013418;28;20050;-75
2022/07/27 06:35:40;;;;;;;1999.90;999.90;;;17.50;99.90;;;;;;5013344;28;20068;-74
2022/07/27 06:38:07;;;;;;;1999.90;999.90;;;17.80;99.90;;;;;;5013487;28;20077;-72
2022/07/27 06:40:34;;;;;;;1999.90;999.90;;;17.90;99.90;;;;;;5012859;28;20051;-72
2022/07/27 06:42:59;;;;;;;1999.90;999.90;;;18.10;99.90;;;;;;5013347;28;20105;-74
2022/07/27 06:45:26;;;;;;;1999.90;999.90;;;18.40;99.90;;;;;;5039622;28;20563;-75
2022/07/27 06:47:51;;;;;;;1999.90;999.90;;;18.50;99.90;;;;;;5033138;28;20030;-75
2022/07/27 06:50:19;;;;;;;1999.90;999.90;;;18.80;99.90;;;;;;5032212;28;20025;-74
2022/07/27 06:52:45;;;;;;;1999.90;999.90;;;18.90;99.90;;;;;;5032607;28;20088;-72
2022/07/27 06:55:12;;;;;;;1999.90;999.90;;;19.10;99.90;;;;;;5019723;28;20018;-72
2022/07/27 06:57:38;;;;;;;1999.90;999.90;;;19.30;99.90;;;;;;5026262;28;20096;-74
2022/07/27 07:00:05;;;;;;;1999.90;999.90;;;19.40;99.90;;;;;;5032257;28;20539;-75
2022/07/27 07:02:31;;;;;;;1999.90;999.90;;;19.40;99.90;;;;;;5031041;28;20028;-75
2022/07/27 07:04:57;;;;;;;1999.90;999.90;;;19.50;99.90;;;;;;5032093;28;20030;-73
2022/07/27 07:07:24;;;;;;;1999.90;999.90;;;19.70;99.90;;;;;;5032233;28;20021;-74
2022/07/27 07:09:49;;;;;;;1999.90;999.90;;;19.80;99.90;;;;;;5032553;28;20030;-72
2022/07/27 07:12:17;;;;;;;1999.90;999.90;;;19.90;99.90;;;;;;5027605;28;20097;-75
2022/07/27 07:14:43;;;;;;;1999.90;999.90;;;20.10;99.90;;;;;;5019686;28;20025;-75
2022/07/27 07:17:09;;;;;;;1999.90;999.90;;;20.20;99.90;;;;;;5032257;28;20026;-72
2022/07/27 07:19:34;;;;;;;1999.90;999.90;;;20.30;99.90;;;;;;5032062;28;20032;-72
2022/07/27 07:22:00;;;;;;;1999.90;999.90;;;20.50;99.90;;;;;;5029156;28;20056;-75
2022/07/27 07:24:27;;;;;;;1999.90;999.90;;;21.00;99.70;;;;;;5031160;28;20029;-72
2022/07/27 07:26:52;;;;;;;1999.90;999.90;;;21.40;99.00;;;;;;5031423;28;20026;-75
2022/07/27 07:29:18;;;;;;;1999.90;999.90;;;21.80;98.20;;;;;;5022520;28;20026;-75
2022/07/27 07:31:44;;;;;;;1999.90;999.90;;;22.00;97.40;;;;;;5030560;28;20444;-75
2022/07/27 07:34:09;;;;;;;1999.90;999.90;;;21.90;97.40;;;;;;5031813;28;20554;-75
2022/07/27 07:36:35;;;;;;;1999.90;999.90;;;21.80;97.30;;;;;;5032084;28;20029;-72
2022/07/27 07:39:01;;;;;;;1999.90;999.90;;;21.80;97.40;;;;;;5032206;28;20502;-72
2022/07/27 07:41:27;;;;;;;1999.90;999.90;;;21.90;97.30;;;;;;5031745;28;20109;-74
2022/07/27 07:43:53;;;;;;;1999.90;999.90;;;21.90;97.00;;;;;;5031798;28;20034;-72
2022/07/27 07:46:18;;;;;;;1999.90;999.90;;;21.90;97.20;;;;;;5022136;28;20022;-72
2022/07/27 07:48:44;;;;;;;1999.90;999.90;;;22.30;97.00;;;;;;5012262;28;20041;-75
2022/07/27 07:51:10;;;;;;;1999.90;999.90;;;23.10;95.80;;;;;;5012763;28;20485;-75
2022/07/27 07:53:36;;;;;;;1999.90;999.90;;;24.10;94.20;;;;;;5031127;28;20022;-76
2022/07/27 07:56:02;;;;;;;1999.90;999.90;;;25.00;92.70;;;;;;5030876;28;20037;-72
2022/07/27 07:58:28;;;;;;;1999.90;999.90;;;24.50;93.00;;;;;;5029646;28;20014;-72
2022/07/27 08:00:54;;;;;;;1999.90;999.90;;;24.30;93.40;;;;;;5029334;28;20037;-75
2022/07/27 08:03:19;;;;;;;1999.90;999.90;;;24.70;93.30;;;;;;5031392;28;20053;-75
2022/07/27 08:05:45;;;;;;;1999.90;999.90;;;26.70;91.50;;;;;;5030210;28;20037;-74
2022/07/27 08:08:10;;;;;;;1999.90;999.90;;;28.20;90.00;;;;;;5031824;28;20030;-73
2022/07/27 08:10:36;;;;;;;1999.90;999.90;;;27.90;88.50;;;;;;5034626;28;20037;-73
2022/07/27 08:13:02;;;;;;;1999.90;999.90;;;28.20;88.40;;;;;;5035097;28;20030;-76
2022/07/27 08:15:29;;;;;;;1999.90;999.90;;;28.20;87.50;;;;;;5033979;28;20029;-73
2022/07/27 08:17:55;;;;;;;1999.90;999.90;;;27.20;88.70;;;;;;5034578;28;20557;-76
2022/07/27 08:20:22;;;;;;;1999.90;999.90;;;27.20;88.50;;;;;;5034788;28;20013;-73
2022/07/27 08:22:48;;;;;;;1999.90;999.90;;;27.20;89.40;;;;;;5035200;28;20064;-73
2022/07/27 08:25:13;;;;;;;1999.90;999.90;;;26.60;89.80;;;;;;5035263;28;20044;-73
2022/07/27 08:27:39;;;;;;;1999.90;999.90;;;28.40;86.60;;;;;;5033988;28;20428;-76
2022/07/27 08:30:06;;;;;;;1999.90;999.90;;;28.20;86.60;;;;;;5016203;28;20053;-76
2022/07/27 08:32:31;;;;;;;1999.90;999.90;;;29.90;84.20;;;;;;5014508;28;20038;-73
2022/07/27 08:34:57;;;;;;;1999.90;999.90;;;30.10;83.90;;;;;;5015083;28;20483;-73
2022/07/27 08:37:23;;;;;;;1999.90;999.90;;;30.00;83.70;;;;;;5016371;28;20029;-73
2022/07/27 08:39:49;;;;;;;1999.90;999.90;;;30.70;83.00;;;;;;5033751;28;20029;-76
2022/07/27 08:42:16;;;;;;;1999.90;999.90;;;32.20;80.70;;;;;;5034653;28;20041;-74
2022/07/27 08:44:44;;;;;;;1999.90;999.90;;;31.30;80.40;;;;;;5043798;28;20017;-74
2022/07/27 08:47:12;;;;;;;1999.90;999.90;;;32.00;80.90;;;;;;5040223;28;20174;-74
2022/07/27 08:49:40;;;;;;;1999.90;999.90;;;33.70;78.30;;;;;;5034270;28;20025;-74
2022/07/27 08:52:08;;;;;;;1999.90;999.90;;;34.80;76.80;;;;;;5034483;28;20373;-70
2022/07/27 08:54:33;;;;;;;1999.90;999.90;;;35.00;75.30;;;;;;5034490;28;20045;-74
2022/07/27 08:56:59;;;;;;;1999.90;999.90;;;33.20;77.10;;;;;;5033199;28;20535;-71
2022/07/27 08:59:25;;;;;;;1999.90;999.90;;;32.10;77.70;;;;;;5034472;28;20025;-74
2022/07/27 09:01:50;;;;;;;1999.90;999.90;;;32.70;77.80;;;;;;5034183;28;20021;-71
2022/07/27 09:04:16;;;;;;;1999.90;999.90;;;33.60;77.30;;;;;;5033993;28;20028;-71
2022/07/27 09:06:50;;;;;;;1999.90;999.90;;;34.40;75.50;;;;;;5034570;28;20021;-71
2022/07/27 09:09:20;;;;;;;1999.90;999.90;;;35.50;75.00;;;;;;5034439;28;20122;-74
2022/07/27 09:12:07;;;;;;;1999.90;999.90;;;35.80;74.40;;;;;;5033643;28;20095;-74
2022/07/27 09:14:35;;;;;;;1999.90;999.90;;;35.60;73.70;;;;;;5034076;28;20135;-71
2022/07/27 09:17:22;;;;;;;1999.90;999.90;;;35.00;73.80;;;;;;5033890;28;20512;-71
2022/07/27 09:19:59;;;;;;;1999.90;999.90;;;35.60;75.20;;;;;;5033195;28;20100;-74
2022/07/27 09:22:52;;;;;;;1999.90;999.90;;;35.90;72.60;;;;;;5033183;28;20055;-74
2022/07/27 09:25:23;;;;;;;1999.90;999.90;;;36.20;72.10;;;;;;5034135;28;20033;-74
2022/07/27 09:27:55;;;;;;;1999.90;999.90;;;35.70;71.20;;;;;;5032841;28;20397;-71
2022/07/27 09:30:21;;;;;;;1999.90;999.90;;;36.10;71.00;;;;;;5033981;28;20026;-71
2022/07/27 09:33:01;;;;;;;1999.90;999.90;;;36.20;71.10;;;;;;5033009;28;20068;-74
2022/07/27 09:35:33;;;;;;;1999.90;999.90;;;35.90;69.60;;;;;;5033636;28;20077;-75
2022/07/27 09:38:21;;;;;;;1999.90;999.90;;;36.40;70.10;;;;;;5033349;28;20021;-74
2022/07/27 09:40:56;;;;;;;1999.90;999.90;;;36.10;71.40;;;;;;5033329;28;20369;-74
2022/07/27 09:43:22;;;;;;;1999.90;999.90;;;36.40;70.70;;;;;;5033620;28;20017;-71
2022/07/27 09:45:49;;;;;;;1999.90;999.90;;;36.10;69.60;;;;;;5034775;28;20507;-71
2022/07/27 09:48:20;;;;;;;1999.90;999.90;;;35.90;70.10;;;;;;5033580;28;20029;-71
2022/07/27 09:50:57;;;;;;;1999.90;999.90;;;36.10;68.20;;;;;;5033503;28;20037;-75
2022/07/27 09:53:25;;;;;;;1999.90;999.90;;;36.60;69.20;;;;;;5031416;28;20025;-71
2022/07/27 09:56:03;;;;;;;1999.90;999.90;;;36.10;68.90;;;;;;5033286;28;20033;-71
2022/07/27 09:58:49;;;;;;;1999.90;999.90;;;36.10;70.00;;;;;;5032041;28;20022;-75
2022/07/27 10:01:22;;;;;;;1999.90;999.90;;;36.10;68.20;;;;;;5033098;28;20064;-75
2022/07/27 10:03:50;;;;;;;1999.90;999.90;;;36.20;68.30;;;;;;5032427;28;20108;-75
2022/07/27 10:06:17;;;;;;;1999.90;999.90;;;36.00;67.20;;;;;;5033149;28;20381;-71
2022/07/27 10:08:45;;;;;;;1999.90;999.90;;;36.10;66.70;;;;;;5033053;28;20053;-70
2022/07/27 10:11:12;;;;;;;1999.90;999.90;;;36.00;67.10;;;;;;5032097;28;20018;-71
2022/07/27 10:13:38;;;;;;;1999.90;999.90;;;36.10;67.70;;;;;;5032702;28;20033;-74
2022/07/27 10:16:10;;;;;;;1999.90;999.90;;;35.40;67.60;;;;;;5032674;28;20029;-75
2022/07/27 10:18:46;;;;;;;1999.90;999.90;;;35.90;68.20;;;;;;5032797;28;20033;-75
2022/07/27 10:21:12;;;;;;;1999.90;999.90;;;35.80;67.50;;;;;;5032889;28;20017;-71
2022/07/27 10:23:38;;;;;;;1999.90;999.90;;;35.60;68.00;;;;;;5032615;28;20061;-75
2022/07/27 10:26:21;;;;;;;1999.90;999.90;;;35.70;67.80;;;;;;5032508;28;20060;-75
2022/07/27 10:28:52;;;;;;;1999.90;999.90;;;36.00;67.70;;;;;;5031985;28;20056;-71
2022/07/27 10:31:21;;;;;;;1999.90;999.90;;;35.80;67.20;;;;;;5027684;28;20508;-75
2022/07/27 10:33:59;;;;;;;1999.90;999.90;;;35.60;66.90;;;;;;5031828;28;20088;-71
2022/07/27 10:36:24;;;;;;;1999.90;999.90;;;35.40;67.90;;;;;;5031826;28;20051;-75
2022/07/27 10:38:55;;;;;;;1999.90;999.90;;;35.80;67.40;;;;;;5032562;28;20025;-72
2022/07/27 10:41:21;;;;;;;1999.90;999.90;;;35.80;67.20;;;;;;5032760;28;20029;-75
2022/07/27 10:43:49;;;;;;;1999.90;999.90;;;36.10;67.20;;;;;;5033539;28;20564;-71
2022/07/27 10:46:23;;;;;;;1999.90;999.90;;;36.10;66.90;;;;;;5045653;28;20048;-71
2022/07/27 10:48:49;;;;;;;1999.90;999.90;;;36.40;66.10;;;;;;5032292;28;20032;-71
2022/07/27 10:51:15;;;;;;;1999.90;999.90;;;36.90;66.20;;;;;;5032021;28;20041;-75
2022/07/27 10:53:43;;;;;;;1999.90;999.90;;;36.50;65.50;;;;;;5031844;28;20393;-75
2022/07/27 10:56:09;;;;;;;1999.90;999.90;;;36.40;66.70;;;;;;5032413;28;20030;-75
2022/07/27 10:58:34;;;;;;;1999.90;999.90;;;36.60;66.50;;;;;;5031640;28;20037;-71
2022/07/27 11:01:02;;;;;;;1999.90;999.90;;;36.60;66.00;;;;;;5032157;28;20026;-71
2022/07/27 11:03:32;;;;;;;1999.90;999.90;;;36.40;66.20;;;;;;5031759;28;20017;-74
2022/07/27 11:06:23;;;;;;;1999.90;999.90;;;36.90;65.40;;;;;;5032264;28;20507;-75
2022/07/27 11:08:50;;;;;;;1999.90;999.90;;;35.20;65.90;;;;;;5032639;28;20075;-75
2022/07/27 11:11:18;;;;;;;1999.90;999.90;;;34.40;66.60;;;;;;5031885;28;20042;-71
2022/07/27 11:13:45;;;;;;;1999.90;999.90;;;32.70;68.50;;;;;;5031955;28;20116;-73
2022/07/27 11:16:16;;;;;;;1999.90;999.90;;;31.10;70.00;;;;;;5032209;28;20021;-73
2022/07/27 11:18:50;;;;;;;1999.90;999.90;;;30.50;70.90;;;;;;5031785;28;20018;-73
2022/07/27 11:21:18;;;;;;;1999.90;999.90;;;30.90;71.20;;;;;;5031671;28;20488;-77
2022/07/27 11:23:47;;;;;;;1999.90;999.90;;;31.70;70.10;;;;;;5031904;28;20032;-77
2022/07/27 11:26:13;;;;;;;1999.90;999.90;;;32.10;70.80;;;;;;5031791;28;20025;-73
2022/07/27 11:28:40;;;;;;;1999.90;999.90;;;31.50;71.70;;;;;;5024227;28;20037;-76
2022/07/27 11:31:09;;;;;;;1999.90;999.90;;;32.70;70.10;;;;;;5028988;28;20551;-77
2022/07/27 11:33:35;;;;;;;1999.90;999.90;;;32.80;69.90;;;;;;5026271;28;20041;-76
2022/07/27 11:36:05;;;;;;;1999.90;999.90;;;31.30;70.50;;;;;;5030214;28;20028;-76
2022/07/27 11:38:51;;;;;;;1999.90;999.90;;;30.20;71.70;;;;;;5029605;28;20013;-73
2022/07/27 11:41:25;;;;;;;1999.90;999.90;;;29.70;72.40;;;;;;5029378;28;20017;-73
2022/07/27 11:43:50;;;;;;;1999.90;999.90;;;29.90;71.70;;;;;;5030107;28;20064;-76
2022/07/27 11:46:23;;;;;;;1999.90;999.90;;;29.80;71.70;;;;;;5033538;28;20033;-76
2022/07/27 11:48:56;;;;;;;1999.90;999.90;;;29.20;72.90;;;;;;5033519;28;20041;-73
2022/07/27 11:51:23;;;;;;;1999.90;999.90;;;28.60;73.10;;;;;;5033522;28;20025;-73
2022/07/27 11:54:04;;;;;;;1999.90;999.90;;;28.50;74.60;;;;;;5033488;28;20164;-73
2022/07/27 11:56:33;;;;;;;1999.90;999.90;;;29.00;74.10;;;;;;5032714;28;20022;-76
2022/07/27 11:59:05;;;;;;;1999.90;999.90;;;28.60;74.30;;;;;;5033139;28;20128;-76
2022/07/27 12:01:33;;;;;;;1999.90;999.90;;;28.60;75.40;;;;;;5033534;28;20030;-76
2022/07/27 12:04:20;;;;;;;1999.90;999.90;;;28.80;75.10;;;;;;5033542;28;20500;-76